Weather at St Olav's Hospital Helipad

Public forecast

Using degrees Celsius for public forecast. Weather courtesy of forecast.io.

Closest aviation weather report (METAR) to St Olav's Hospital Helipad

Closest report is Trondheim Airport, Værnes, 14.6 nm (27.1 km) E.

2024/05/30 07:20 (retrieved 17 minutes ago)

ENVA 300720Z 10005KT 050V150 CAVOK 19/09 Q1010 NOSIG RMK WIND 670FT 08005KT

Closest aviation forecast (TAF) to St Olav's Hospital Helipad

Closest forecast is Trondheim Airport, Værnes, 14.6 nm (27.1 km) E.

2024/05/30 06:36 (retrieved 1 hour ago)

TAF ENVA 300500Z 3006/3106 14008KT 9999 FEW040 BKN080 TEMPO 3015/3022 27012KT SHRA BKN030CB PROB30 TEMPO 3016/3020 TS